createdAt,value
2022-08-14T00:02:03.683Z,70.00
2022-08-14T00:04:35.579Z,69.60
2022-08-14T00:07:11.713Z,69.40
2022-08-14T00:09:55.485Z,69.70
2022-08-14T00:12:48.189Z,69.60
2022-08-14T00:15:17.990Z,68.80
2022-08-14T00:17:52.862Z,69.00
2022-08-14T00:20:30.853Z,69.00
2022-08-14T00:23:08.338Z,68.80
2022-08-14T00:25:43.183Z,69.40
2022-08-14T00:28:29.234Z,69.20
2022-08-14T00:31:00.221Z,69.50
2022-08-14T00:33:52.247Z,69.90
2022-08-14T00:36:35.363Z,69.40
2022-08-14T00:39:06.501Z,69.50
2022-08-14T00:41:39.013Z,69.70
2022-08-14T00:44:08.365Z,70.20
2022-08-14T00:46:38.552Z,70.30
2022-08-14T00:49:06.354Z,70.00
2022-08-14T00:51:38.180Z,70.00
2022-08-14T00:54:16.994Z,69.90
2022-08-14T00:56:55.162Z,70.50
2022-08-14T00:59:29.817Z,70.50
2022-08-14T01:02:00.377Z,70.60
2022-08-14T01:04:51.350Z,70.70
2022-08-14T01:07:20.848Z,70.00
2022-08-14T01:09:54.478Z,70.10
2022-08-14T01:12:27.379Z,70.00
2022-08-14T01:14:59.462Z,70.40
2022-08-14T01:17:49.738Z,70.00
2022-08-14T01:20:39.847Z,69.80
2022-08-14T01:23:15.573Z,70.30
2022-08-14T01:25:45.957Z,69.90
2022-08-14T01:28:46.562Z,70.50
2022-08-14T01:31:01.661Z,70.80
2022-08-14T01:33:30.466Z,70.70
2022-08-14T01:36:22.803Z,70.50
2022-08-14T01:38:55.868Z,70.50
2022-08-14T01:41:29.786Z,70.80
2022-08-14T01:44:04.492Z,71.20
2022-08-14T01:46:38.001Z,71.40
2022-08-14T01:49:08.620Z,71.10
2022-08-14T01:51:37.372Z,71.50
2022-08-14T01:54:14.330Z,71.80
2022-08-14T01:56:44.479Z,71.20
2022-08-14T01:59:18.334Z,72.10
2022-08-14T02:01:58.932Z,71.70
2022-08-14T02:04:55.095Z,72.50
2022-08-14T02:07:44.823Z,72.10
2022-08-14T02:10:13.078Z,72.90
2022-08-14T02:12:53.982Z,72.00
2022-08-14T02:15:21.949Z,72.50
2022-08-14T02:17:50.744Z,73.00
2022-08-14T02:20:20.070Z,73.40
2022-08-14T02:22:54.599Z,73.10
2022-08-14T02:25:23.316Z,73.20
2022-08-14T02:28:24.454Z,73.40
2022-08-14T02:30:44.705Z,73.50
2022-08-14T02:33:12.765Z,73.20
2022-08-14T02:35:43.368Z,73.00
2022-08-14T02:38:11.482Z,73.30
2022-08-14T02:40:39.319Z,74.60
2022-08-14T02:43:08.770Z,74.00
2022-08-14T02:45:44.639Z,74.00
2022-08-14T02:49:01.079Z,74.40
2022-08-14T02:51:09.180Z,74.20
2022-08-14T02:53:39.842Z,74.00
2022-08-14T02:56:30.563Z,74.70
2022-08-14T02:59:05.717Z,74.80
2022-08-14T03:01:50.608Z,74.50
2022-08-14T03:04:23.647Z,74.70
2022-08-14T03:07:06.705Z,74.40
2022-08-14T03:10:24.294Z,74.30
2022-08-14T03:12:31.416Z,75.20
2022-08-14T03:15:13.980Z,75.00
2022-08-14T03:17:57.653Z,75.20
2022-08-14T03:20:29.450Z,75.10
2022-08-14T03:23:00.066Z,75.20
2022-08-14T03:25:30.966Z,75.40
2022-08-14T03:28:02.648Z,75.30
2022-08-14T03:30:39.029Z,74.70
2022-08-14T03:33:10.661Z,75.10
2022-08-14T03:36:00.261Z,74.70
2022-08-14T03:39:13.789Z,74.80
2022-08-14T03:41:19.727Z,74.40
2022-08-14T03:44:01.114Z,75.20
2022-08-14T03:46:51.841Z,74.50
2022-08-14T03:49:29.328Z,74.40
2022-08-14T03:52:00.787Z,74.70
2022-08-14T03:54:29.339Z,75.00
2022-08-14T03:57:02.469Z,74.90
2022-08-14T03:59:35.239Z,75.30
2022-08-14T04:02:04.597Z,75.00
2022-08-14T04:04:38.132Z,75.00
2022-08-14T04:07:06.725Z,75.20
2022-08-14T04:09:34.157Z,75.80
2022-08-14T04:12:03.025Z,75.70
2022-08-14T04:14:37.331Z,76.00
2022-08-14T04:17:05.785Z,75.90
2022-08-14T04:19:39.096Z,75.30
2022-08-14T04:22:06.349Z,75.50
2022-08-14T04:24:38.511Z,75.70
2022-08-14T04:27:09.597Z,75.70
2022-08-14T04:29:42.602Z,75.80
2022-08-14T04:33:00.980Z,75.80
2022-08-14T04:35:07.304Z,76.50
2022-08-14T04:37:56.428Z,75.90
2022-08-14T04:40:42.669Z,76.20
2022-08-14T04:43:32.529Z,76.40
2022-08-14T04:46:09.926Z,76.40
2022-08-14T04:48:43.741Z,76.30
2022-08-14T04:51:21.161Z,76.50
2022-08-14T04:53:51.096Z,76.40
2022-08-14T04:56:34.360Z,76.40
2022-08-14T04:59:10.452Z,76.70
2022-08-14T05:01:44.901Z,76.50
2022-08-14T05:04:20.157Z,76.70
2022-08-14T05:06:49.592Z,77.10
2022-08-14T05:09:21.673Z,77.50
2022-08-14T05:11:49.897Z,77.00
2022-08-14T05:14:46.906Z,77.50
2022-08-14T05:17:12.160Z,77.60
2022-08-14T05:19:44.723Z,77.60
2022-08-14T05:22:27.493Z,77.00
2022-08-14T05:24:54.759Z,77.70
2022-08-14T05:27:23.950Z,77.80
2022-08-14T05:29:55.226Z,77.70
2022-08-14T05:32:26.993Z,77.70
2022-08-14T05:35:00.821Z,77.80
2022-08-14T05:37:29.967Z,78.20
2022-08-14T05:39:59.553Z,78.40
2022-08-14T05:42:32.151Z,79.50
2022-08-14T05:45:04.132Z,78.80
2022-08-14T05:47:39.030Z,79.60
2022-08-14T05:50:17.595Z,79.10
2022-08-14T05:52:47.531Z,80.70
2022-08-14T05:55:14.988Z,81.20
2022-08-14T05:58:02.403Z,81.70
2022-08-14T06:00:38.574Z,80.80
2022-08-14T06:03:09.543Z,80.80
2022-08-14T06:05:38.875Z,80.90
2022-08-14T06:08:36.701Z,81.00
2022-08-14T06:11:06.565Z,81.00
2022-08-14T06:13:41.095Z,80.80
2022-08-14T06:16:18.924Z,82.80
2022-08-14T06:18:48.702Z,81.30
2022-08-14T06:21:22.590Z,80.90
2022-08-14T06:23:50.525Z,83.40
2022-08-14T06:26:20.889Z,83.10
2022-08-14T06:28:52.328Z,81.60
2022-08-14T06:31:22.702Z,79.50
2022-08-14T06:35:02.364Z,76.60
2022-08-14T06:36:39.373Z,74.50
2022-08-14T06:39:10.526Z,73.60
2022-08-14T06:41:58.091Z,72.60
2022-08-14T06:44:33.038Z,71.50
2022-08-14T06:47:03.067Z,71.30
2022-08-14T06:49:40.102Z,70.50
2022-08-14T06:52:15.086Z,69.60
2022-08-14T06:54:43.192Z,68.20
2022-08-14T06:57:14.319Z,67.10
2022-08-14T06:59:42.372Z,66.90
2022-08-14T07:02:29.287Z,66.40
2022-08-14T07:05:20.834Z,66.90
2022-08-14T07:07:51.523Z,65.80
2022-08-14T07:10:20.449Z,66.20
2022-08-14T07:13:00.839Z,64.90
2022-08-14T07:15:30.011Z,65.50
2022-08-14T07:18:00.664Z,65.10
2022-08-14T07:20:30.975Z,65.30
2022-08-14T07:23:10.826Z,65.70
2022-08-14T07:25:47.697Z,65.10
2022-08-14T07:28:20.641Z,65.20
2022-08-14T07:30:50.724Z,66.00
2022-08-14T07:33:24.585Z,66.60
2022-08-14T07:35:59.506Z,66.50
2022-08-14T07:38:33.991Z,67.30
2022-08-14T07:41:11.888Z,67.00
2022-08-14T07:43:44.169Z,67.00
2022-08-14T07:46:28.504Z,67.50
2022-08-14T07:48:57.151Z,66.70
2022-08-14T07:51:24.570Z,66.20
2022-08-14T07:53:56.794Z,66.70
2022-08-14T07:56:46.856Z,67.50
2022-08-14T07:59:12.826Z,68.10
2022-08-14T08:01:48.394Z,67.50
2022-08-14T08:04:25.057Z,67.20
2022-08-14T08:06:53.567Z,67.80
2022-08-14T08:09:29.840Z,67.50
2022-08-14T08:12:04.942Z,67.60
2022-08-14T08:14:55.773Z,67.40
2022-08-14T08:17:24.068Z,68.10
2022-08-14T08:19:51.942Z,67.80
2022-08-14T08:22:21.433Z,67.70
2022-08-14T08:24:52.955Z,67.10
2022-08-14T08:27:21.638Z,66.90
2022-08-14T08:29:51.132Z,66.40
2022-08-14T08:32:19.020Z,66.10
2022-08-14T08:34:48.584Z,66.70
2022-08-14T08:37:16.935Z,66.80
2022-08-14T08:40:02.314Z,66.30
2022-08-14T08:42:41.217Z,66.00
2022-08-14T08:45:17.387Z,65.80
2022-08-14T08:47:46.466Z,65.20
2022-08-14T08:50:31.865Z,64.80
2022-08-14T08:53:02.046Z,63.50
2022-08-14T08:55:38.794Z,62.90
2022-08-14T08:58:12.781Z,63.20
2022-08-14T09:00:48.799Z,62.20
2022-08-14T09:03:20.853Z,62.00
2022-08-14T09:06:04.120Z,62.30
2022-08-14T09:08:51.297Z,62.20
2022-08-14T09:11:21.208Z,61.70
2022-08-14T09:13:51.523Z,60.60
2022-08-14T09:16:24.925Z,60.00
2022-08-14T09:18:53.239Z,60.40
2022-08-14T09:21:24.326Z,59.30
2022-08-14T09:24:28.745Z,59.40
2022-08-14T09:26:49.514Z,59.30
2022-08-14T09:29:19.852Z,58.70
2022-08-14T09:32:00.887Z,58.60
2022-08-14T09:34:58.853Z,58.50
2022-08-14T09:37:26.812Z,58.60
2022-08-14T09:40:16.707Z,58.00
2022-08-14T09:43:36.468Z,58.30
2022-08-14T09:46:08.094Z,57.70
2022-08-14T09:48:38.003Z,57.80
2022-08-14T09:54:19.035Z,57.90
2022-08-14T09:56:31.896Z,57.70
2022-08-14T09:59:16.095Z,57.80
2022-08-14T10:01:45.962Z,57.00
2022-08-14T10:04:33.003Z,56.00
2022-08-14T10:07:03.913Z,55.70
2022-08-14T10:09:33.645Z,55.10
2022-08-14T10:12:18.694Z,55.10
2022-08-14T10:14:53.382Z,53.70
2022-08-14T10:17:33.026Z,53.90
2022-08-14T10:20:06.566Z,54.00
2022-08-14T10:23:13.182Z,54.30
2022-08-14T10:25:47.941Z,54.90
2022-08-14T10:28:51.402Z,55.00
2022-08-14T10:31:04.104Z,52.80
2022-08-14T10:33:33.313Z,54.30
2022-08-14T10:36:02.813Z,53.50
2022-08-14T10:38:34.032Z,52.50
2022-08-14T10:41:15.845Z,53.10
2022-08-14T10:43:45.797Z,52.60
2022-08-14T10:47:36.757Z,51.80
2022-08-14T10:49:09.703Z,51.90
2022-08-14T10:51:39.755Z,51.90
2022-08-14T10:54:35.070Z,51.90
2022-08-14T10:57:11.940Z,51.90
2022-08-14T10:59:45.845Z,51.70
2022-08-14T11:02:22.302Z,51.30
2022-08-14T11:05:13.427Z,50.30
2022-08-14T11:08:02.470Z,48.60
2022-08-14T11:10:46.588Z,49.70
2022-08-14T11:13:27.464Z,48.70
2022-08-14T11:16:01.353Z,49.00
2022-08-14T11:18:36.272Z,48.40
2022-08-14T11:21:09.569Z,48.00
2022-08-14T11:23:43.964Z,48.40
2022-08-14T11:26:14.166Z,47.60
2022-08-14T11:28:48.704Z,47.30
2022-08-14T11:31:23.685Z,48.80
2022-08-14T11:33:55.474Z,48.20
2022-08-14T11:36:57.326Z,47.50
2022-08-14T11:39:20.146Z,47.40
2022-08-14T11:42:55.504Z,47.10
2022-08-14T11:45:00.177Z,46.20
2022-08-14T11:47:35.307Z,47.50
2022-08-14T11:50:33.499Z,46.90
2022-08-14T11:53:04.378Z,47.60
2022-08-14T11:55:38.003Z,47.40
2022-08-14T11:58:11.827Z,46.30
2022-08-14T12:00:52.644Z,46.20
2022-08-14T12:03:37.528Z,47.30
2022-08-14T12:06:21.583Z,47.10
2022-08-14T12:08:59.876Z,45.90
2022-08-14T12:11:43.021Z,46.50
2022-08-14T12:14:30.479Z,45.90
2022-08-14T12:17:12.799Z,45.90
2022-08-14T12:19:54.230Z,45.10
2022-08-14T12:22:44.689Z,46.20
2022-08-14T12:25:14.555Z,46.10
2022-08-14T12:27:53.876Z,46.70
2022-08-14T12:30:40.073Z,47.20
2022-08-14T12:33:30.981Z,46.90
2022-08-14T12:36:08.252Z,46.80
2022-08-14T12:38:45.703Z,47.00
2022-08-14T12:41:27.899Z,47.10
2022-08-14T12:44:01.982Z,47.40
2022-08-14T12:46:35.777Z,47.00
2022-08-14T12:49:15.959Z,46.90
2022-08-14T12:51:44.964Z,47.00
2022-08-14T12:54:28.140Z,46.80
2022-08-14T12:57:17.008Z,47.40
2022-08-14T12:59:49.608Z,47.50
2022-08-14T13:02:26.474Z,46.40
2022-08-14T13:04:58.553Z,46.40
2022-08-14T13:07:32.547Z,47.10
2022-08-14T13:10:45.840Z,47.10
2022-08-14T13:15:45.619Z,47.60
2022-08-14T13:18:15.569Z,47.60
2022-08-14T13:20:49.355Z,47.30
2022-08-14T13:23:30.627Z,48.50
2022-08-14T13:25:59.994Z,49.90
2022-08-14T13:28:30.315Z,49.80
2022-08-14T13:31:03.825Z,49.70
2022-08-14T13:33:40.618Z,49.40
2022-08-14T13:36:09.766Z,48.90
2022-08-14T13:38:38.115Z,49.40
2022-08-14T13:41:07.358Z,50.00
2022-08-14T13:43:59.825Z,47.80
2022-08-14T13:46:27.922Z,47.70
2022-08-14T13:48:56.540Z,47.00
2022-08-14T13:51:34.327Z,47.20
2022-08-14T13:54:11.674Z,46.70
2022-08-14T13:56:41.927Z,46.20
2022-08-14T13:59:10.154Z,46.70
2022-08-14T14:01:43.007Z,46.40
2022-08-14T14:04:19.905Z,46.90
2022-08-14T14:06:51.107Z,46.80
2022-08-14T14:09:37.510Z,47.20
2022-08-14T14:12:37.637Z,46.20
2022-08-14T14:15:10.365Z,47.10
2022-08-14T14:17:39.647Z,46.60
2022-08-14T14:20:15.230Z,46.30
2022-08-14T14:23:03.461Z,46.00
2022-08-14T14:25:46.148Z,46.10
2022-08-14T14:28:24.570Z,46.30
2022-08-14T14:30:57.259Z,45.40
2022-08-14T14:36:20.813Z,46.20
2022-08-14T14:38:57.774Z,46.90
2022-08-14T14:41:38.176Z,47.90
2022-08-14T14:44:15.629Z,48.70
2022-08-14T14:46:50.250Z,48.60
2022-08-14T14:49:31.929Z,48.90
2022-08-14T14:52:15.267Z,49.20
2022-08-14T14:54:51.302Z,48.20
2022-08-14T14:57:19.526Z,48.40
2022-08-14T14:59:47.715Z,47.80
2022-08-14T15:02:37.117Z,47.70
2022-08-14T15:05:06.130Z,46.50
2022-08-14T15:07:35.452Z,46.10
2022-08-14T15:10:05.069Z,46.60
2022-08-14T15:12:55.435Z,45.70
2022-08-14T15:15:21.537Z,45.70
2022-08-14T15:17:50.102Z,45.40
2022-08-14T15:20:30.698Z,45.30
2022-08-14T15:23:08.229Z,45.50
2022-08-14T15:25:52.413Z,45.70
2022-08-14T15:28:23.169Z,45.80
2022-08-14T15:30:58.029Z,46.00
2022-08-14T15:34:43.445Z,46.40
2022-08-14T15:36:54.050Z,46.40
2022-08-14T15:39:21.674Z,46.30
2022-08-14T15:41:50.542Z,46.10
2022-08-14T15:44:24.727Z,45.90
2022-08-14T15:46:55.129Z,45.50
2022-08-14T15:49:24.358Z,45.60
2022-08-14T15:51:59.397Z,44.70
2022-08-14T15:54:31.533Z,45.00
2022-08-14T15:57:02.608Z,45.50
2022-08-14T15:59:50.351Z,46.00
2022-08-14T16:02:24.596Z,45.40
2022-08-14T16:04:59.105Z,45.70
2022-08-14T16:07:27.144Z,45.70
2022-08-14T16:10:27.928Z,45.50
2022-08-14T16:12:47.535Z,45.50
2022-08-14T16:15:16.965Z,45.90
2022-08-14T16:17:46.226Z,45.90
2022-08-14T16:20:41.388Z,45.30
2022-08-14T16:23:10.585Z,45.90
2022-08-14T16:25:42.425Z,46.00
2022-08-14T16:28:10.407Z,46.20
2022-08-14T16:30:55.990Z,46.40
2022-08-14T16:33:56.415Z,46.60
2022-08-14T16:36:31.204Z,46.60
2022-08-14T16:39:02.254Z,46.90
2022-08-14T16:41:30.166Z,46.80
2022-08-14T16:44:21.476Z,46.10
2022-08-14T16:46:58.188Z,46.20
2022-08-14T16:50:02.720Z,46.30
2022-08-14T16:52:26.346Z,46.10
2022-08-14T16:55:09.315Z,46.40
2022-08-14T16:57:50.467Z,46.30
2022-08-14T17:00:28.933Z,46.80
2022-08-14T17:03:04.869Z,46.50
2022-08-14T17:05:43.238Z,48.50
2022-08-14T17:08:32.281Z,49.60
2022-08-14T17:11:10.655Z,50.90
2022-08-14T17:13:58.370Z,50.40
2022-08-14T17:16:37.090Z,51.50
2022-08-14T17:19:13.398Z,51.90
2022-08-14T17:21:46.981Z,51.90
2022-08-14T17:24:57.756Z,52.10
2022-08-14T17:27:06.131Z,52.20
2022-08-14T17:29:44.987Z,52.60
2022-08-14T17:32:55.728Z,53.40
2022-08-14T17:35:26.759Z,53.40
2022-08-14T17:38:38.772Z,53.40
2022-08-14T17:41:27.116Z,54.00
2022-08-14T17:44:12.243Z,54.50
2022-08-14T17:46:55.288Z,54.80
2022-08-14T17:49:36.890Z,55.10
2022-08-14T17:52:34.838Z,55.30
2022-08-14T17:56:00.581Z,55.20
2022-08-14T17:57:59.396Z,55.00
2022-08-14T18:00:28.670Z,55.60
2022-08-14T18:02:58.545Z,56.60
2022-08-14T18:06:08.968Z,55.30
2022-08-14T18:08:34.119Z,55.50
2022-08-14T18:11:05.398Z,55.70
2022-08-14T18:13:50.699Z,55.60
2022-08-14T18:16:22.391Z,55.70
2022-08-14T18:18:51.496Z,55.60
2022-08-14T18:21:41.536Z,56.40
2022-08-14T18:24:20.390Z,56.50
2022-08-14T18:27:09.457Z,56.00
2022-08-14T18:29:54.638Z,56.30
2022-08-14T18:32:35.692Z,57.10
2022-08-14T18:35:11.303Z,57.10
2022-08-14T18:37:56.012Z,57.20
2022-08-14T18:40:34.374Z,58.20
2022-08-14T18:43:03.698Z,58.80
2022-08-14T18:45:41.589Z,58.40
2022-08-14T18:48:14.405Z,57.80
2022-08-14T18:51:07.531Z,58.30
2022-08-14T18:53:55.832Z,59.40
2022-08-14T18:56:59.240Z,59.00
2022-08-14T18:59:53.514Z,59.50
2022-08-14T19:02:32.740Z,59.40
2022-08-14T19:05:02.469Z,59.30
2022-08-14T19:07:34.125Z,59.60
2022-08-14T19:10:01.712Z,59.40
2022-08-14T19:13:00.705Z,59.50
2022-08-14T19:15:34.513Z,59.50
2022-08-14T19:18:26.493Z,59.80
2022-08-14T19:21:13.490Z,59.60
2022-08-14T19:23:44.132Z,60.30
2022-08-14T19:26:36.773Z,59.80
2022-08-14T19:29:23.941Z,61.30
2022-08-14T19:31:55.686Z,60.90
2022-08-14T19:34:37.445Z,60.60
2022-08-14T19:37:09.905Z,60.70
2022-08-14T19:39:53.857Z,60.80
2022-08-14T19:42:28.045Z,60.80
2022-08-14T19:44:58.369Z,61.40
2022-08-14T19:47:49.819Z,61.20
2022-08-14T19:50:40.690Z,61.20
2022-08-14T19:53:16.410Z,60.90
2022-08-14T19:56:00.816Z,61.30
2022-08-14T19:58:54.413Z,61.40
2022-08-14T20:19:49.932Z,63.60
2022-08-14T20:22:38.727Z,65.30
2022-08-14T20:25:15.253Z,64.20
2022-08-14T20:27:44.521Z,63.60
2022-08-14T20:30:33.683Z,64.40
2022-08-14T20:33:07.495Z,63.90
2022-08-14T20:35:43.344Z,63.90
2022-08-14T20:38:33.359Z,63.90
2022-08-14T20:41:07.585Z,64.00
2022-08-14T20:43:58.618Z,64.50
2022-08-14T20:46:38.345Z,68.80
2022-08-14T20:49:10.976Z,70.90
2022-08-14T20:51:54.674Z,71.70
2022-08-14T20:54:33.962Z,71.20
2022-08-14T20:57:09.225Z,69.60
2022-08-14T20:59:46.687Z,69.60
2022-08-14T21:02:34.230Z,70.30
2022-08-14T21:05:16.095Z,70.50
2022-08-14T21:07:51.263Z,70.60
2022-08-14T21:10:36.351Z,71.50
2022-08-14T21:14:18.670Z,70.10
2022-08-14T21:15:57.720Z,69.70
2022-08-14T21:18:29.034Z,69.10
2022-08-14T21:21:00.026Z,69.10
2022-08-14T21:23:32.508Z,69.20
2022-08-14T21:26:00.460Z,69.00
2022-08-14T21:28:30.438Z,70.00
2022-08-14T21:31:03.533Z,69.20
2022-08-14T21:33:31.106Z,69.30
2022-08-14T21:36:07.805Z,68.10
2022-08-14T21:38:38.260Z,67.10
2022-08-14T21:41:43.556Z,66.30
2022-08-14T21:44:17.041Z,65.70
2022-08-14T21:46:51.348Z,65.40
2022-08-14T21:49:24.010Z,64.90
2022-08-14T21:52:49.056Z,64.80
2022-08-14T21:54:49.551Z,65.70
2022-08-14T21:58:46.312Z,66.40
2022-08-14T22:00:34.527Z,66.30
2022-08-14T22:03:03.002Z,66.70
2022-08-14T22:05:30.732Z,68.20
2022-08-14T22:07:58.827Z,69.10
2022-08-14T22:10:26.155Z,67.80
2022-08-14T22:13:00.672Z,67.50
2022-08-14T22:15:30.248Z,66.40
2022-08-14T22:17:59.863Z,66.30
2022-08-14T22:20:28.952Z,65.20
2022-08-14T22:22:57.560Z,66.00
2022-08-14T22:25:33.256Z,65.50
2022-08-14T22:28:01.390Z,64.80
2022-08-14T22:30:28.624Z,64.70
2022-08-14T22:33:00.032Z,63.80
2022-08-14T22:35:29.200Z,65.10
2022-08-14T22:38:36.158Z,65.90
2022-08-14T22:41:04.771Z,66.70
2022-08-14T22:43:35.168Z,67.30
2022-08-14T22:46:14.373Z,67.10
2022-08-14T22:48:45.654Z,67.40
2022-08-14T22:51:17.867Z,67.40
2022-08-14T22:53:48.433Z,67.40
2022-08-14T22:56:21.404Z,67.60
2022-08-14T22:58:53.752Z,68.80
2022-08-14T23:01:56.239Z,69.50
2022-08-14T23:04:35.879Z,69.30
2022-08-14T23:07:22.549Z,69.20
2022-08-14T23:09:57.693Z,69.70
2022-08-14T23:12:54.543Z,69.90
2022-08-14T23:15:24.552Z,69.70
2022-08-14T23:17:56.373Z,69.60
2022-08-14T23:20:29.759Z,69.90
2022-08-14T23:22:57.524Z,70.70
2022-08-14T23:25:45.805Z,71.00
2022-08-14T23:28:34.676Z,70.70
2022-08-14T23:31:09.873Z,71.10
2022-08-14T23:33:45.819Z,71.20
2022-08-14T23:36:32.044Z,70.80
2022-08-14T23:39:00.428Z,70.70
2022-08-14T23:41:45.803Z,70.40
2022-08-14T23:44:14.911Z,71.50
2022-08-14T23:46:44.106Z,71.70
2022-08-14T23:49:12.658Z,71.90
2022-08-14T23:51:40.309Z,72.10
2022-08-14T23:54:48.475Z,72.30
2022-08-14T23:56:59.894Z,71.70
2022-08-14T23:59:30.465Z,71.30
